Time;durP1;ratioP1;P1;durP2;ratioP2;P2;SDS_P1;SDS_P2;PMS_P1;PMS_P2;Temp;Humidity;BMP_temperature;BMP_pressure;BME280_temperature;BME280_humidity;BME280_pressure;Samples;Min_cycle;Max_cycle;Signal;HPM_P1;HPM_P2
2022/05/10 00:02:15;;;;;;;7.18;2.83;;;16.20;50.70;;;;;;5007468;28;20175;-85
2022/05/10 00:04:43;;;;;;;6.03;3.20;;;16.20;50.70;;;;;;5013629;28;20132;-85
2022/05/10 00:07:09;;;;;;;7.28;3.05;;;16.20;50.70;;;;;;5012697;28;20098;-85
2022/05/10 00:09:35;;;;;;;6.10;3.05;;;16.20;50.70;;;;;;5012183;28;20125;-85
2022/05/10 00:12:01;;;;;;;6.70;3.05;;;16.20;50.80;;;;;;5013464;28;20074;-85
2022/05/10 00:14:28;;;;;;;7.75;4.07;;;16.10;51.10;;;;;;5014792;28;20041;-85
2022/05/10 00:16:54;;;;;;;6.63;2.97;;;16.10;50.90;;;;;;5014698;28;20388;-85
2022/05/10 00:19:22;;;;;;;6.57;3.05;;;16.10;50.90;;;;;;5017245;28;20053;-86
2022/05/10 00:21:49;;;;;;;7.07;3.92;;;16.10;50.90;;;;;;5015835;28;20484;-86
2022/05/10 00:24:15;;;;;;;9.82;4.45;;;16.10;50.90;;;;;;5019612;28;20093;-83
2022/05/10 00:26:40;;;;;;;6.85;3.05;;;16.10;51.20;;;;;;5024093;28;20173;-83
2022/05/10 00:29:06;;;;;;;5.35;2.97;;;16.00;51.00;;;;;;5026183;28;20069;-84
2022/05/10 00:31:32;;;;;;;4.93;3.10;;;16.00;51.00;;;;;;5024768;28;20394;-84
2022/05/10 00:33:59;;;;;;;5.20;3.00;;;15.90;51.30;;;;;;5027138;28;20042;-84
2022/05/10 00:36:25;;;;;;;7.95;3.20;;;15.90;51.00;;;;;;5026510;28;20072;-84
2022/05/10 00:38:51;;;;;;;5.65;3.10;;;15.90;51.00;;;;;;5018078;28;20176;-86
2022/05/10 00:41:19;;;;;;;8.55;3.83;;;15.90;51.10;;;;;;5013618;28;20401;-86
2022/05/10 00:43:49;;;;;;;7.65;3.78;;;15.90;51.10;;;;;;5014972;28;20038;-84
2022/05/10 00:46:34;;;;;;;5.53;3.45;;;15.90;51.10;;;;;;5012847;28;20129;-84
2022/05/10 00:49:28;;;;;;;4.93;3.40;;;15.80;51.10;;;;;;5014499;28;20129;-86
2022/05/10 00:51:53;;;;;;;7.15;3.05;;;15.90;51.10;;;;;;5015223;28;20042;-84
2022/05/10 00:54:46;;;;;;;5.60;3.30;;;15.80;51.10;;;;;;5015459;28;20038;-84
2022/05/10 00:57:31;;;;;;;5.05;3.15;;;15.80;51.10;;;;;;5014551;28;20054;-85
2022/05/10 01:00:10;;;;;;;7.82;4.20;;;15.80;51.20;;;;;;5015491;28;20041;-86
2022/05/10 01:02:51;;;;;;;5.45;3.42;;;15.80;51.70;;;;;;5012924;28;20041;-86
2022/05/10 01:05:30;;;;;;;5.50;3.80;;;15.70;51.60;;;;;;5014007;28;20054;-86
2022/05/10 01:08:06;;;;;;;5.53;3.30;;;15.70;51.50;;;;;;5008551;28;20061;-86
2022/05/10 01:10:39;;;;;;;6.50;3.30;;;15.70;51.50;;;;;;4996849;28;20508;-86
2022/05/10 01:13:10;;;;;;;6.60;3.78;;;15.70;51.60;;;;;;5013205;28;20065;-86
2022/05/10 01:15:39;;;;;;;7.60;3.80;;;15.70;51.70;;;;;;5012926;28;20049;-86
2022/05/10 01:18:05;;;;;;;5.38;3.60;;;15.70;51.80;;;;;;5014089;28;20516;-86
2022/05/10 01:20:43;;;;;;;6.05;3.40;;;15.60;51.80;;;;;;5014250;28;20077;-86
2022/05/10 01:23:37;;;;;;;6.18;3.60;;;15.50;51.70;;;;;;5012281;28;20056;-86
2022/05/10 01:26:26;;;;;;;6.22;3.25;;;15.60;51.90;;;;;;5014498;28;20046;-86
2022/05/10 01:28:58;;;;;;;8.63;3.80;;;15.50;51.80;;;;;;5005614;28;20050;-84
2022/05/10 01:31:44;;;;;;;6.95;3.60;;;15.50;51.90;;;;;;5014645;28;20048;-86
2022/05/10 01:34:16;;;;;;;5.93;3.67;;;15.50;51.90;;;;;;5013139;28;20045;-86
2022/05/10 01:36:48;;;;;;;6.13;3.50;;;15.50;51.90;;;;;;5015020;28;20038;-86
2022/05/10 01:39:28;;;;;;;7.82;4.30;;;15.40;51.90;;;;;;5012721;28;20052;-86
2022/05/10 01:42:02;;;;;;;5.85;3.85;;;15.40;52.00;;;;;;5012290;28;20117;-86
2022/05/10 01:44:49;;;;;;;7.18;3.05;;;15.40;52.00;;;;;;5014465;28;20065;-86
2022/05/10 01:47:21;;;;;;;5.72;3.35;;;15.40;52.00;;;;;;5014505;28;20561;-86
2022/05/10 01:49:54;;;;;;;7.00;3.20;;;15.40;52.00;;;;;;5012815;28;20377;-86
2022/05/10 01:52:29;;;;;;;5.32;3.08;;;15.40;52.00;;;;;;5012259;28;20034;-86
2022/05/10 01:55:00;;;;;;;7.65;4.10;;;15.40;52.10;;;;;;5014387;28;20520;-86
2022/05/10 01:57:27;;;;;;;8.25;4.22;;;15.40;52.40;;;;;;5014507;28;20420;-86
2022/05/10 02:00:06;;;;;;;5.32;3.40;;;15.30;52.40;;;;;;5013220;28;20049;-86
2022/05/10 02:02:33;;;;;;;5.53;3.78;;;15.30;52.30;;;;;;5013385;28;20046;-86
2022/05/10 02:05:02;;;;;;;6.20;3.97;;;15.30;52.30;;;;;;5013628;28;20445;-86
2022/05/10 02:07:30;;;;;;;11.23;5.15;;;15.30;52.50;;;;;;5013983;28;20042;-86
2022/05/10 02:10:12;;;;;;;10.15;5.15;;;15.30;52.70;;;;;;5014253;28;20045;-87
2022/05/10 02:12:52;;;;;;;6.43;3.63;;;15.20;52.90;;;;;;5014345;28;20053;-87
2022/05/10 02:15:21;;;;;;;7.18;4.07;;;15.20;52.60;;;;;;5013197;28;20389;-86
2022/05/10 02:17:54;;;;;;;11.70;6.05;;;15.20;52.50;;;;;;5013913;28;20081;-86
2022/05/10 02:20:34;;;;;;;11.82;6.15;;;15.20;53.00;;;;;;5013824;28;20073;-86
2022/05/10 02:23:09;;;;;;;8.88;5.55;;;15.20;53.20;;;;;;5013863;28;20044;-86
2022/05/10 02:25:40;;;;;;;9.23;6.03;;;15.10;53.40;;;;;;5011921;28;20057;-84
2022/05/10 02:28:19;;;;;;;9.23;5.40;;;15.10;53.60;;;;;;5011619;28;20073;-87
2022/05/10 02:30:45;;;;;;;8.93;5.95;;;15.10;53.60;;;;;;5012099;28;20572;-84
2022/05/10 02:33:14;;;;;;;10.32;6.18;;;15.00;53.80;;;;;;5013893;28;20042;-87
2022/05/10 02:35:55;;;;;;;8.88;5.47;;;15.00;54.10;;;;;;5012861;28;20046;-86
2022/05/10 02:38:33;;;;;;;7.90;3.58;;;15.00;53.70;;;;;;5011732;28;20548;-86
2022/05/10 02:41:00;;;;;;;6.07;3.90;;;15.00;53.60;;;;;;5013306;28;20048;-84
2022/05/10 02:43:30;;;;;;;6.22;3.58;;;15.00;53.50;;;;;;5013185;28;20080;-86
2022/05/10 02:45:57;;;;;;;7.03;4.38;;;15.00;53.50;;;;;;5012545;28;20540;-86
2022/05/10 02:48:35;;;;;;;8.35;5.00;;;15.00;53.50;;;;;;5013496;28;20092;-86
2022/05/10 02:51:01;;;;;;;10.13;4.88;;;15.00;53.70;;;;;;5012063;28;20045;-87
2022/05/10 02:53:28;;;;;;;5.97;4.32;;;15.00;53.70;;;;;;5013368;28;20500;-87
2022/05/10 02:56:03;;;;;;;7.82;4.75;;;15.00;53.80;;;;;;5011078;28;20106;-86
2022/05/10 02:58:35;;;;;;;7.93;4.45;;;15.00;53.70;;;;;;5010612;28;20104;-87
2022/05/10 03:01:17;;;;;;;6.90;3.88;;;15.00;53.70;;;;;;5013327;28;20073;-87
2022/05/10 03:03:43;;;;;;;6.22;4.60;;;15.00;53.60;;;;;;5013521;28;20049;-87
2022/05/10 03:06:13;;;;;;;7.40;4.78;;;15.00;53.60;;;;;;5013300;28;20481;-87
2022/05/10 03:08:38;;;;;;;6.30;4.28;;;15.00;54.00;;;;;;5012766;28;20116;-87
2022/05/10 03:11:04;;;;;;;6.07;4.00;;;15.00;54.20;;;;;;5012270;28;20117;-87
2022/05/10 03:13:30;;;;;;;6.55;3.50;;;15.00;54.00;;;;;;5012524;28;20540;-87
2022/05/10 03:15:55;;;;;;;6.15;4.07;;;15.00;53.90;;;;;;5013064;28;20490;-87
2022/05/10 03:18:21;;;;;;;7.60;4.10;;;15.00;53.90;;;;;;5011003;28;20038;-85
2022/05/10 03:20:47;;;;;;;5.82;3.53;;;15.00;53.80;;;;;;5012876;28;20152;-84
2022/05/10 03:23:13;;;;;;;7.72;4.78;;;15.00;53.80;;;;;;5012647;28;20109;-85
2022/05/10 03:25:38;;;;;;;4.85;4.03;;;15.00;54.00;;;;;;5012339;28;20034;-86
2022/05/10 03:28:05;;;;;;;6.22;3.78;;;15.00;54.00;;;;;;5012843;28;20034;-87
2022/05/10 03:30:31;;;;;;;5.82;3.83;;;15.00;54.00;;;;;;5012433;28;20124;-87
2022/05/10 03:32:57;;;;;;;8.85;5.30;;;15.00;53.90;;;;;;5012479;28;20093;-86
2022/05/10 03:35:23;;;;;;;6.47;4.03;;;15.00;54.10;;;;;;5012875;28;20104;-86
2022/05/10 03:37:49;;;;;;;7.15;4.20;;;15.00;54.20;;;;;;5014016;28;20038;-86
2022/05/10 03:40:14;;;;;;;6.78;4.97;;;15.00;54.30;;;;;;5014203;28;20030;-87
2022/05/10 03:42:45;;;;;;;6.70;4.20;;;15.00;54.50;;;;;;5015567;28;20044;-87
2022/05/10 03:45:12;;;;;;;5.25;3.90;;;15.00;54.70;;;;;;5013327;28;20489;-86
2022/05/10 03:47:38;;;;;;;5.03;3.60;;;15.00;54.60;;;;;;5013236;28;20112;-87
2022/05/10 03:50:05;;;;;;;5.43;3.92;;;15.00;54.40;;;;;;5011687;28;20038;-87
2022/05/10 03:52:31;;;;;;;5.82;4.25;;;15.00;54.40;;;;;;5011368;28;20042;-88
2022/05/10 03:54:56;;;;;;;6.97;4.32;;;15.00;54.30;;;;;;5013847;28;20535;-88
2022/05/10 03:57:22;;;;;;;8.57;5.60;;;15.00;54.30;;;;;;5012937;28;20100;-87
2022/05/10 03:59:48;;;;;;;6.88;4.97;;;15.00;54.60;;;;;;5014222;28;20042;-87
2022/05/10 04:02:16;;;;;;;7.78;4.85;;;15.00;54.80;;;;;;5011846;28;20038;-86
2022/05/10 04:04:42;;;;;;;6.88;4.43;;;15.00;54.80;;;;;;5012593;28;20061;-88
2022/05/10 04:07:08;;;;;;;6.53;5.32;;;15.00;55.00;;;;;;5012551;28;20482;-88
2022/05/10 04:09:34;;;;;;;7.30;4.28;;;15.00;55.00;;;;;;5011768;28;20065;-87
2022/05/10 04:12:00;;;;;;;5.32;3.90;;;15.00;54.90;;;;;;5012285;28;20120;-87
2022/05/10 04:14:26;;;;;;;6.20;3.97;;;15.00;54.70;;;;;;5012955;28;20160;-87
2022/05/10 04:16:52;;;;;;;7.05;4.80;;;15.00;54.70;;;;;;5012594;28;20117;-86
2022/05/10 04:19:17;;;;;;;9.05;6.55;;;15.00;54.80;;;;;;5012196;28;20038;-87
2022/05/10 04:21:43;;;;;;;10.30;6.40;;;15.00;55.40;;;;;;5012295;28;21738;-88
2022/05/10 04:24:09;;;;;;;6.38;4.20;;;15.00;55.90;;;;;;5015675;28;20077;-87
2022/05/10 04:26:34;;;;;;;6.55;4.75;;;15.00;55.80;;;;;;5015581;28;20060;-86
2022/05/10 04:29:00;;;;;;;10.18;5.78;;;14.90;55.40;;;;;;5016419;28;20053;-86
2022/05/10 04:31:26;;;;;;;11.32;7.25;;;14.90;55.40;;;;;;5016306;28;20038;-85
2022/05/10 04:33:52;;;;;;;10.40;6.70;;;15.00;56.10;;;;;;5015995;28;20379;-85
2022/05/10 04:36:22;;;;;;;12.38;6.75;;;14.90;56.40;;;;;;5015390;28;20048;-85
2022/05/10 04:38:48;;;;;;;9.50;6.90;;;15.00;56.70;;;;;;5014580;28;20049;-85
2022/05/10 04:41:25;;;;;;;9.70;6.53;;;14.90;56.70;;;;;;5015549;28;20049;-85
2022/05/10 04:43:54;;;;;;;11.35;6.95;;;14.90;56.80;;;;;;5016263;28;20049;-85
2022/05/10 04:46:20;;;;;;;8.80;5.50;;;14.90;56.60;;;;;;5015600;28;20037;-85
2022/05/10 04:48:46;;;;;;;8.32;5.97;;;14.90;56.40;;;;;;5016169;28;20065;-86
2022/05/10 04:51:12;;;;;;;8.73;6.45;;;14.90;56.30;;;;;;5014243;28;20042;-86
2022/05/10 04:53:38;;;;;;;10.95;7.18;;;14.90;56.40;;;;;;5013767;28;20123;-86
2022/05/10 04:56:04;;;;;;;11.63;7.70;;;14.90;56.50;;;;;;5015431;28;20056;-86
2022/05/10 04:58:30;;;;;;;15.65;8.90;;;14.90;56.80;;;;;;5013458;28;20054;-86
2022/05/10 05:01:00;;;;;;;11.60;8.52;;;14.90;57.00;;;;;;5013927;28;20117;-87
2022/05/10 05:03:26;;;;;;;12.48;7.22;;;14.90;57.20;;;;;;5015096;28;20038;-86
2022/05/10 05:05:52;;;;;;;10.32;7.38;;;14.90;57.10;;;;;;5014399;28;20060;-86
2022/05/10 05:08:18;;;;;;;11.65;8.50;;;14.90;57.20;;;;;;5013828;28;20057;-86
2022/05/10 05:10:44;;;;;;;16.20;9.57;;;14.90;57.30;;;;;;5015452;28;20053;-86
2022/05/10 05:13:09;;;;;;;13.15;9.13;;;14.90;57.70;;;;;;5014841;28;20107;-85
2022/05/10 05:15:35;;;;;;;12.98;9.15;;;14.90;57.70;;;;;;5015414;28;20073;-86
2022/05/10 05:18:03;;;;;;;16.70;9.50;;;14.90;57.90;;;;;;5015487;28;20042;-85
2022/05/10 05:20:32;;;;;;;14.68;9.60;;;14.90;57.90;;;;;;5013462;28;20133;-87
2022/05/10 05:22:57;;;;;;;15.63;10.20;;;14.90;58.10;;;;;;5014985;28;20046;-86
2022/05/10 05:25:23;;;;;;;13.95;8.85;;;14.80;58.10;;;;;;5013865;28;20034;-87
2022/05/10 05:27:49;;;;;;;13.35;9.73;;;14.90;58.40;;;;;;5015367;28;20072;-86
2022/05/10 05:30:15;;;;;;;14.85;10.13;;;14.90;58.50;;;;;;5015082;28;20081;-86
2022/05/10 05:32:40;;;;;;;13.50;9.75;;;14.90;58.50;;;;;;5014622;28;20064;-86
2022/05/10 05:35:07;;;;;;;13.82;9.57;;;14.90;58.60;;;;;;5015668;28;20041;-85
2022/05/10 05:37:32;;;;;;;14.00;9.45;;;14.90;58.50;;;;;;5010260;28;20449;-85
2022/05/10 05:39:59;;;;;;;11.88;9.48;;;14.90;58.50;;;;;;5016054;28;20117;-86
2022/05/10 05:42:24;;;;;;;12.95;8.15;;;15.00;58.50;;;;;;5015710;28;20041;-86
2022/05/10 05:44:50;;;;;;;15.25;8.80;;;15.00;58.40;;;;;;5016740;28;20627;-86
2022/05/10 05:47:16;;;;;;;14.45;7.97;;;15.00;58.40;;;;;;5016062;28;20034;-86
2022/05/10 05:49:42;;;;;;;11.30;8.57;;;15.00;58.50;;;;;;5032221;28;20081;-79
2022/05/10 05:52:08;;;;;;;12.43;8.18;;;15.10;58.50;;;;;;5038940;28;20065;-86
2022/05/10 05:54:34;;;;;;;11.98;8.60;;;15.10;58.50;;;;;;5040058;28;20033;-77
2022/05/10 05:57:04;;;;;;;12.40;8.63;;;15.20;58.50;;;;;;5031117;28;20045;-86
2022/05/10 05:59:30;;;;;;;12.40;9.35;;;15.20;58.50;;;;;;5016848;28;20054;-86
2022/05/10 06:01:56;;;;;;;14.70;9.40;;;15.30;58.50;;;;;;5001054;28;20512;-86
2022/05/10 06:04:23;;;;;;;14.68;8.48;;;15.40;58.30;;;;;;5009466;28;20081;-86
2022/05/10 06:06:48;;;;;;;14.13;8.60;;;15.50;58.40;;;;;;5016382;28;20536;-86
2022/05/10 06:09:14;;;;;;;9.93;8.18;;;15.50;58.20;;;;;;5015987;28;20116;-86
2022/05/10 06:11:40;;;;;;;12.98;8.40;;;15.60;58.10;;;;;;5014120;28;20097;-86
2022/05/10 06:14:06;;;;;;;9.70;8.13;;;15.70;58.10;;;;;;5015213;28;20405;-86
2022/05/10 06:16:32;;;;;;;10.55;7.95;;;15.80;58.00;;;;;;5014139;28;20085;-86
2022/05/10 06:18:58;;;;;;;11.52;7.38;;;16.00;57.80;;;;;;5015724;28;20082;-88
2022/05/10 06:21:24;;;;;;;14.07;7.97;;;16.00;57.50;;;;;;5015832;28;20069;-88
2022/05/10 06:23:49;;;;;;;10.40;7.47;;;16.20;57.20;;;;;;5015174;28;20041;-85
2022/05/10 06:26:15;;;;;;;13.10;7.60;;;16.40;57.10;;;;;;5014207;28;20127;-85
2022/05/10 06:28:41;;;;;;;11.48;7.57;;;16.50;56.80;;;;;;5016897;28;20500;-85
2022/05/10 06:31:08;;;;;;;12.20;7.85;;;16.60;56.70;;;;;;5012370;28;20042;-85
2022/05/10 06:33:35;;;;;;;14.57;8.07;;;16.80;56.30;;;;;;5015340;28;20489;-85
2022/05/10 06:36:00;;;;;;;13.00;7.85;;;17.00;56.20;;;;;;5013604;28;20061;-85
2022/05/10 06:38:29;;;;;;;11.73;7.78;;;17.10;55.90;;;;;;5014654;28;20075;-85
2022/05/10 06:40:56;;;;;;;8.98;6.57;;;17.20;55.80;;;;;;5015701;28;20061;-86
2022/05/10 06:43:23;;;;;;;9.85;6.35;;;17.30;55.30;;;;;;5013987;28;20053;-87
2022/05/10 06:45:49;;;;;;;11.75;6.53;;;17.50;55.10;;;;;;5015030;28;20042;-85
2022/05/10 06:48:15;;;;;;;10.82;7.00;;;17.70;55.10;;;;;;5015465;28;20054;-86
2022/05/10 06:50:42;;;;;;;12.75;7.10;;;17.90;54.90;;;;;;5013902;28;20124;-86
2022/05/10 06:53:09;;;;;;;10.63;7.07;;;18.10;54.60;;;;;;5015079;28;20053;-85
2022/05/10 06:55:36;;;;;;;11.32;6.78;;;18.30;54.40;;;;;;5015074;28;20049;-81
2022/05/10 06:58:03;;;;;;;10.85;7.53;;;18.40;53.30;;;;;;5015082;28;20057;-86
2022/05/10 07:00:29;;;;;;;12.48;7.38;;;18.60;52.80;;;;;;5015210;28;20046;-86
2022/05/10 07:02:55;;;;;;;13.65;7.28;;;18.80;52.70;;;;;;5015380;28;20501;-86
2022/05/10 07:05:22;;;;;;;13.95;7.25;;;19.00;52.00;;;;;;5015086;28;20052;-86
2022/05/10 07:07:48;;;;;;;13.98;6.03;;;19.20;51.20;;;;;;5015077;28;20052;-86
2022/05/10 07:10:16;;;;;;;9.90;6.43;;;19.40;51.00;;;;;;5015404;28;20053;-86
2022/05/10 07:12:43;;;;;;;11.57;7.38;;;19.60;50.80;;;;;;5015486;28;20528;-86
2022/05/10 07:15:13;;;;;;;12.60;6.50;;;19.70;49.70;;;;;;5015543;28;20081;-90
2022/05/10 07:17:38;;;;;;;11.90;5.90;;;19.90;49.40;;;;;;5014697;28;20460;-86
2022/05/10 07:20:10;;;;;;;12.00;7.43;;;20.00;49.20;;;;;;5014935;28;20121;-86
2022/05/10 07:22:36;;;;;;;11.02;6.35;;;20.10;48.90;;;;;;5014591;28;20050;-88
2022/05/10 07:25:03;;;;;;;11.02;5.90;;;20.20;49.10;;;;;;5015361;28;20053;-86
2022/05/10 07:27:28;;;;;;;11.65;5.93;;;20.40;48.70;;;;;;5014617;28;20056;-86
2022/05/10 07:29:54;;;;;;;9.88;6.32;;;20.50;48.60;;;;;;5014943;28;20127;-85
2022/05/10 07:32:21;;;;;;;8.90;5.90;;;20.70;48.50;;;;;;5015238;28;20463;-86
2022/05/10 07:34:48;;;;;;;9.88;5.60;;;20.80;48.70;;;;;;5015198;28;20112;-86
2022/05/10 07:37:13;;;;;;;8.65;5.80;;;21.00;48.50;;;;;;5015276;28;20042;-88
2022/05/10 07:39:39;;;;;;;8.93;5.13;;;21.20;48.40;;;;;;5014829;28;20045;-86
2022/05/10 07:42:05;;;;;;;9.77;6.05;;;21.30;47.90;;;;;;5014153;28;20054;-88
2022/05/10 07:44:32;;;;;;;10.07;5.85;;;21.50;47.70;;;;;;5015356;28;20362;-86
2022/05/10 07:46:58;;;;;;;9.38;5.80;;;21.70;47.30;;;;;;5015372;28;20045;-86
2022/05/10 07:49:24;;;;;;;10.90;5.55;;;21.90;46.80;;;;;;5014406;28;20054;-86
2022/05/10 07:51:49;;;;;;;10.05;5.75;;;22.00;46.50;;;;;;5015156;28;20130;-86
2022/05/10 07:54:15;;;;;;;8.18;5.10;;;22.10;46.40;;;;;;5015612;28;20041;-86
2022/05/10 07:56:41;;;;;;;10.88;5.40;;;22.20;45.90;;;;;;5015050;28;20053;-86
2022/05/10 07:59:07;;;;;;;9.43;4.95;;;22.30;45.70;;;;;;5014459;28;20061;-86
2022/05/10 08:01:33;;;;;;;8.23;5.43;;;22.30;46.10;;;;;;5015766;28;20124;-87
2022/05/10 08:03:59;;;;;;;8.98;4.60;;;22.30;45.30;;;;;;5015824;28;20046;-86
2022/05/10 08:06:26;;;;;;;10.60;5.40;;;22.40;45.10;;;;;;5017759;28;20049;-88
2022/05/10 08:08:52;;;;;;;9.32;4.95;;;22.40;44.80;;;;;;5018044;28;20042;-88
2022/05/10 08:11:18;;;;;;;7.38;4.03;;;22.40;44.70;;;;;;5017631;28;20083;-87
2022/05/10 08:13:44;;;;;;;12.32;4.85;;;22.30;44.70;;;;;;5018356;28;20069;-87
2022/05/10 08:16:10;;;;;;;10.05;4.93;;;22.30;44.70;;;;;;5024742;28;20073;-87
2022/05/10 08:18:37;;;;;;;10.77;4.90;;;22.30;45.00;;;;;;5026627;28;20038;-86
2022/05/10 08:21:03;;;;;;;6.55;4.20;;;22.20;45.00;;;;;;5025046;28;20516;-87
2022/05/10 08:23:31;;;;;;;10.07;5.00;;;22.20;45.00;;;;;;5025406;28;20045;-87
2022/05/10 08:25:58;;;;;;;11.32;4.82;;;22.20;45.40;;;;;;5026200;28;20038;-87
2022/05/10 08:28:26;;;;;;;14.02;4.72;;;22.10;45.60;;;;;;5021189;28;20057;-87
2022/05/10 08:30:52;;;;;;;9.20;4.90;;;22.10;45.60;;;;;;5026864;28;20033;-86
2022/05/10 08:33:25;;;;;;;11.23;6.10;;;22.10;46.00;;;;;;5028450;28;20056;-86
2022/05/10 08:35:51;;;;;;;7.60;4.03;;;22.10;45.90;;;;;;5022841;28;20038;-86
2022/05/10 08:38:18;;;;;;;9.32;5.18;;;22.10;46.10;;;;;;5022089;28;20061;-86
2022/05/10 08:40:59;;;;;;;9.60;4.90;;;22.20;46.10;;;;;;5012497;28;20085;-86
2022/05/10 08:43:30;;;;;;;7.00;4.35;;;22.20;45.90;;;;;;5013560;28;20053;-87
2022/05/10 08:46:16;;;;;;;8.70;4.47;;;22.20;45.80;;;;;;5014200;28;20516;-87
2022/05/10 08:48:47;;;;;;;7.35;4.32;;;22.20;45.60;;;;;;5012340;28;20493;-86
2022/05/10 08:51:13;;;;;;;7.00;4.40;;;22.20;45.60;;;;;;5012153;28;20046;-87
2022/05/10 08:53:39;;;;;;;7.53;4.75;;;22.20;46.00;;;;;;5014048;28;20049;-87
2022/05/10 08:56:26;;;;;;;9.75;5.55;;;22.20;46.00;;;;;;5013926;28;20048;-86
2022/05/10 08:59:16;;;;;;;12.07;6.13;;;22.20;46.30;;;;;;5013574;28;20057;-88
2022/05/10 09:02:12;;;;;;;12.10;6.15;;;22.20;46.10;;;;;;5007021;28;20061;-90
2022/05/10 09:05:03;;;;;;;9.43;5.95;;;22.20;46.40;;;;;;5007717;28;20057;-85
2022/05/10 09:07:53;;;;;;;11.68;6.53;;;22.20;46.60;;;;;;5010979;28;20047;-87
2022/05/10 09:10:51;;;;;;;10.43;6.07;;;22.30;46.50;;;;;;5015457;28;20069;-87
2022/05/10 09:13:19;;;;;;;8.73;5.80;;;22.30;46.50;;;;;;4940730;29;20455;-86
2022/05/10 09:15:50;;;;;;;12.25;5.85;;;22.30;46.50;;;;;;4956632;29;20094;-86
2022/05/10 09:18:46;;;;;;;11.02;7.00;;;22.30;46.80;;;;;;4956579;29;20055;-86
2022/05/10 09:21:37;;;;;;;10.23;7.22;;;22.40;47.10;;;;;;4955197;29;20058;-86
2022/05/10 09:24:10;;;;;;;9.75;6.20;;;22.40;46.80;;;;;;4956272;29;20059;-87
2022/05/10 09:26:44;;;;;;;8.80;5.87;;;22.50;47.10;;;;;;4955024;29;20126;-85
2022/05/10 09:29:16;;;;;;;;;;;22.60;47.20;;;;;;4937712;29;20803;-87
2022/05/10 09:37:16;;;;;;;11.57;7.15;;;22.80;46.90;;;;;;4939709;29;20055;-87
2022/05/10 09:40:03;;;;;;;12.65;6.22;;;22.90;46.50;;;;;;4937014;29;20059;-86
2022/05/10 09:42:39;;;;;;;13.95;6.72;;;23.00;46.90;;;;;;4939709;29;20055;-87
2022/05/10 09:45:17;;;;;;;10.75;6.88;;;23.00;46.60;;;;;;4939543;29;20055;-87
2022/05/10 09:48:09;;;;;;;9.25;5.95;;;23.10;46.40;;;;;;4936301;29;20055;-86
2022/05/10 09:50:45;;;;;;;9.23;6.07;;;23.20;46.50;;;;;;5007196;28;20088;-88
2022/05/10 09:53:27;;;;;;;8.13;5.78;;;23.20;46.50;;;;;;5007864;28;20485;-90
2022/05/10 09:56:03;;;;;;;8.20;5.75;;;23.30;46.50;;;;;;5004600;28;20038;-88
2022/05/10 09:58:28;;;;;;;7.85;6.32;;;23.30;46.30;;;;;;5009153;28;20512;-87
2022/05/10 10:00:56;;;;;;;14.75;5.38;;;23.40;46.00;;;;;;5011797;28;20085;-86
2022/05/10 10:03:32;;;;;;;11.30;5.22;;;23.40;46.10;;;;;;5007926;28;20076;-86
2022/05/10 10:06:12;;;;;;;9.63;5.70;;;23.60;46.60;;;;;;5012729;28;20049;-87
2022/05/10 10:08:40;;;;;;;8.40;4.97;;;23.60;45.80;;;;;;5012465;28;20516;-88
2022/05/10 10:11:32;;;;;;;11.25;4.88;;;23.70;45.50;;;;;;5011543;28;20413;-87
2022/05/10 10:14:07;;;;;;;9.43;5.82;;;23.70;45.60;;;;;;4950342;29;20055;-89
2022/05/10 10:16:45;;;;;;;8.15;4.88;;;23.90;46.30;;;;;;4951149;29;20055;-87
2022/05/10 10:19:33;;;;;;;8.60;5.38;;;23.90;46.00;;;;;;4933029;29;20118;-87
2022/05/10 10:22:05;;;;;;;8.27;5.80;;;24.10;46.00;;;;;;4943061;29;20689;-92
2022/05/10 10:24:44;;;;;;;7.53;5.30;;;24.20;45.80;;;;;;4931826;29;20071;-88
2022/05/10 10:27:17;;;;;;;6.93;4.80;;;24.30;45.80;;;;;;4942762;29;20048;-89
2022/05/10 10:29:53;;;;;;;6.68;5.65;;;24.40;45.70;;;;;;4950869;29;20051;-89
2022/05/10 10:32:35;;;;;;;8.45;5.28;;;24.40;46.00;;;;;;4949364;29;20481;-87
2022/05/10 10:35:12;;;;;;;8.43;5.72;;;24.40;45.00;;;;;;4935468;29;20055;-86
2022/05/10 10:38:09;;;;;;;10.00;5.70;;;24.50;44.40;;;;;;4950695;29;20059;-89
2022/05/10 10:40:43;;;;;;;8.63;5.90;;;24.60;44.30;;;;;;4890447;29;20087;-86
2022/05/10 10:43:22;;;;;;;7.93;5.90;;;24.60;43.70;;;;;;4895954;29;20067;-87
2022/05/10 10:45:52;;;;;;;10.05;6.15;;;24.60;43.60;;;;;;4895481;29;20770;-92
2022/05/10 10:48:28;;;;;;;11.27;5.88;;;24.60;43.20;;;;;;4882380;29;20052;-87
2022/05/10 10:50:55;;;;;;;9.48;5.80;;;24.60;43.10;;;;;;4908951;29;20117;-85
2022/05/10 10:53:24;;;;;;;9.18;4.97;;;24.60;43.20;;;;;;4955540;29;20051;-93
2022/05/10 10:56:16;;;;;;;11.70;5.57;;;24.50;43.30;;;;;;4955104;29;20074;-86
2022/05/10 10:59:00;;;;;;;9.77;5.43;;;24.50;43.70;;;;;;4942724;29;20168;-87
2022/05/10 11:01:26;;;;;;;10.25;6.07;;;24.50;43.60;;;;;;4920473;29;20063;-86
2022/05/10 11:04:22;;;;;;;10.55;6.00;;;24.50;43.80;;;;;;4952347;28;20055;-93
2022/05/10 11:06:54;;;;;;;11.82;6.07;;;24.50;43.60;;;;;;4940808;29;20118;-92
2022/05/10 11:09:23;;;;;;;7.90;5.20;;;24.40;43.50;;;;;;4940563;29;20054;-87
2022/05/10 11:11:56;;;;;;;9.32;4.88;;;24.40;43.50;;;;;;4940523;29;20396;-86
2022/05/10 11:14:58;;;;;;;7.10;4.43;;;24.40;43.80;;;;;;4954160;29;20137;-87
2022/05/10 11:17:44;;;;;;;6.68;3.45;;;24.40;44.10;;;;;;4998359;28;20060;-87
2022/05/10 11:20:11;;;;;;;8.80;4.00;;;24.40;44.30;;;;;;5026645;28;20060;-87
2022/05/10 11:22:42;;;;;;;7.45;3.38;;;24.40;44.40;;;;;;5027460;28;20076;-90
2022/05/10 11:25:38;;;;;;;10.23;3.50;;;24.40;43.50;;;;;;5025804;28;20101;-88
2022/05/10 11:28:09;;;;;;;9.70;4.30;;;24.40;43.50;;;;;;5028808;28;20080;-91
2022/05/10 11:30:45;;;;;;;8.10;3.83;;;24.40;43.40;;;;;;5024653;28;20091;-88
2022/05/10 11:33:29;;;;;;;5.68;3.50;;;24.50;43.60;;;;;;5021033;28;20042;-87
2022/05/10 11:36:09;;;;;;;6.53;3.40;;;24.60;44.20;;;;;;5005331;28;20517;-85
2022/05/10 11:38:56;;;;;;;8.95;3.33;;;24.60;43.60;;;;;;4997222;28;20137;-91
2022/05/10 11:41:33;;;;;;;11.63;3.45;;;24.60;43.40;;;;;;5014232;28;20050;-85
2022/05/10 11:44:40;;;;;;;12.25;3.42;;;24.70;43.20;;;;;;5015045;28;20054;-91
2022/05/10 11:47:24;;;;;;;9.68;4.18;;;24.70;43.30;;;;;;5014939;28;20038;-92
2022/05/10 11:50:11;;;;;;;6.70;3.70;;;24.80;42.80;;;;;;5013006;28;20062;-86
2022/05/10 11:53:06;;;;;;;7.35;3.53;;;24.80;42.30;;;;;;5013678;28;20137;-87
2022/05/10 11:55:54;;;;;;;9.60;3.80;;;24.90;42.30;;;;;;5015177;28;20045;-88
2022/05/10 11:58:23;;;;;;;7.68;3.92;;;24.90;41.90;;;;;;5012861;28;20144;-86
2022/05/10 12:00:51;;;;;;;5.57;3.28;;;24.90;41.80;;;;;;5013298;28;20373;-85
2022/05/10 12:03:49;;;;;;;8.80;3.33;;;25.00;41.50;;;;;;5015204;28;20050;-93
2022/05/10 12:06:24;;;;;;;10.02;3.85;;;25.00;41.50;;;;;;4953835;29;20475;-87
2022/05/10 12:08:50;;;;;;;9.65;4.38;;;25.00;41.60;;;;;;4953778;29;20058;-87
2022/05/10 12:11:28;;;;;;;9.25;4.40;;;25.00;42.30;;;;;;4953937;29;20047;-86
2022/05/10 12:22:11;;;;;;;7.32;3.67;;;25.10;42.40;;;;;;4954543;28;20047;-87
2022/05/10 12:24:55;;;;;;;7.53;3.95;;;25.10;42.40;;;;;;4934888;29;20512;-89
2022/05/10 12:27:21;;;;;;;;;;;25.10;42.60;;;;;;4949759;29;20044;-86
2022/05/10 12:29:46;;;;;;;8.82;3.88;;;25.10;42.90;;;;;;4948794;29;20291;-86
2022/05/10 12:32:18;;;;;;;6.05;3.60;;;25.10;42.80;;;;;;4954225;29;20566;-89
2022/05/10 12:35:04;;;;;;;11.85;4.32;;;25.10;42.90;;;;;;4932825;29;20058;-94
2022/05/10 12:37:32;;;;;;;6.05;3.65;;;25.10;43.00;;;;;;4947075;29;20087;-88
2022/05/10 12:40:10;;;;;;;8.65;4.53;;;25.10;43.10;;;;;;4939687;29;20126;-92
2022/05/10 12:42:44;;;;;;;11.07;3.97;;;25.10;42.80;;;;;;4989097;28;20445;-88
2022/05/10 12:45:34;;;;;;;7.78;3.88;;;25.20;42.60;;;;;;5017976;28;20389;-89
2022/05/10 12:48:25;;;;;;;9.07;3.58;;;25.20;42.80;;;;;;5020896;28;20138;-94
2022/05/10 12:51:32;;;;;;;5.30;2.83;;;25.20;42.30;;;;;;5021778;28;20046;-91
2022/05/10 12:54:02;;;;;;;9.75;3.08;;;25.10;41.90;;;;;;5020913;28;20120;-88
2022/05/10 12:56:31;;;;;;;7.35;3.85;;;25.10;41.80;;;;;;5020034;28;20042;-91
2022/05/10 12:59:06;;;;;;;8.50;3.35;;;25.10;41.70;;;;;;5022971;28;20104;-94
2022/05/10 13:01:52;;;;;;;8.77;3.03;;;25.10;41.70;;;;;;5023283;28;20045;-96
2022/05/10 13:04:20;;;;;;;6.65;2.83;;;25.00;41.40;;;;;;5025547;28;20049;-94
2022/05/10 13:07:04;;;;;;;13.45;3.55;;;25.00;40.70;;;;;;5026490;28;20054;-93
2022/05/10 13:09:40;;;;;;;6.13;2.70;;;24.90;40.20;;;;;;5023817;28;20097;-94
2022/05/10 13:12:11;;;;;;;14.85;3.83;;;24.90;40.20;;;;;;5024750;28;20053;-94
2022/05/10 13:14:43;;;;;;;8.02;2.60;;;24.80;40.00;;;;;;5028106;28;20072;-92
2022/05/10 13:17:10;;;;;;;9.90;2.72;;;24.80;39.70;;;;;;5024233;28;20489;-87
2022/05/10 13:19:42;;;;;;;9.63;2.95;;;24.80;39.80;;;;;;5023822;28;20049;-88
2022/05/10 13:22:12;;;;;;;8.33;2.50;;;24.70;39.50;;;;;;5023338;28;20202;-92